Latest Weather Observations for Ballarat

IDV60801

Issued at 11:32 pm EST Saturday 29 April 2017 (issued every 30 minutes, with the page automatically refreshed every 10 minutes)

About weather observations | Map of weather stations | Latest weather observations for VIC | Other Formats
Station Details ID: 089002 Name: BALLARAT AERODROME Lat: -37.51 Lon: 143.79 Height: 435.2 m
Data from the previous 72 hours. | See also: Recent months at Ballarat
Date/Time
EST
Temp
°C
App
Temp
°C
Dew
Point
°C
Rel
Hum
%
Delta-T
°C
Wind Press
QNH
hPa
Press
MSL
hPa
Rain since
9am
mm
Dir  Spd
km/h
Gust
km/h
Spd
kts
Gust
kts
29/11:30pm 8.6 8.3 8.6 100 0.0 CALM 0 0 0 0 1023.7 1023.4 0.0
29/11:26pm 8.6 8.3 8.6 100 0.0 CALM 0 0 0 0 1023.7 1023.4 0.0
29/11:06pm 8.3 7.9 8.3 100 0.0 CALM 0 0 0 0 1023.8 1023.5 0.0
29/11:00pm 8.2 7.8 8.2 100 0.0 CALM 0 0 0 0 1023.8 1023.5 0.0
29/10:41pm 9.1 8.9 9.1 100 0.0 CALM 0 0 0 0 1023.9 1023.6 0.0
29/10:30pm 9.5 9.4 9.5 100 0.0 CALM 0 0 0 0 1023.9 1023.6 0.0
29/10:06pm 9.8 8.1 9.8 100 0.0 S 9 9 5 5 1024.0 1023.7 0.0
29/10:00pm 9.7 8.0 9.7 100 0.0 S 9 9 5 5 1024.0 1023.7 0.0
29/09:30pm 10.0 8.7 10.0 100 0.0 SW 7 11 4 6 1024.1 1023.8 0.0
29/09:10pm 9.8 8.1 9.8 100 0.0 SSE 9 13 5 7 1023.9 1023.6 0.0
29/09:00pm 9.9 7.8 9.9 100 0.0 S 11 13 6 7 1023.9 1023.6 0.0
29/08:54pm 9.9 8.2 9.9 100 0.0 S 9 13 5 7 1023.9 1023.6 0.0
29/08:30pm 9.6 7.5 9.6 100 0.0 S 11 15 6 8 1023.8 1023.5 0.0
29/08:00pm 9.3 7.5 9.3 100 0.0 S 9 11 5 6 1023.8 1023.5 0.0
29/07:30pm 10.1 8.1 10.0 99 0.1 SSE 11 13 6 7 1023.9 1023.6 0.0
29/07:00pm 10.7 9.2 10.5 99 0.1 S 9 11 5 6 1023.8 1023.5 0.0
29/06:30pm 11.6 9.9 11.3 98 0.2 S 11 15 6 8 1023.4 1023.1 0.0
29/06:00pm 12.6 10.2 11.3 92 0.7 S 15 20 8 11 1023.2 1022.9 0.0
29/05:30pm 13.6 11.2 11.3 86 1.2 SSW 15 20 8 11 1023.1 1022.8 0.0
29/05:00pm 14.1 11.9 10.9 81 1.7 SSW 13 20 7 11 1023.0 1022.7 0.0
29/04:30pm 15.0 12.8 10.8 76 2.3 SW 13 20 7 11 1022.8 1022.6 0.0
29/04:00pm 15.9 13.0 10.9 72 2.7 SW 17 24 9 13 1022.7 1022.5 0.0
29/03:30pm 15.2 12.2 11.8 80 1.9 WSW 19 26 10 14 1022.6 1022.4 0.0
29/03:00pm 15.9 12.6 11.5 75 2.4 WSW 20 30 11 16 1022.5 1022.3 0.0
29/02:30pm 16.3 13.2 12.3 77 2.2 WSW 20 28 11 15 1022.4 1022.2 0.0
29/02:00pm 15.0 11.8 11.4 79 2.0 SW 19 28 10 15 1022.6 1022.4 0.0
29/01:30pm 15.2 12.4 12.7 85 1.4 SW 19 24 10 13 1022.8 1022.6 0.0
29/01:00pm 14.5 13.0 14.2 98 0.2 SW 15 24 8 13 1023.2 1022.9 0.0
29/12:30pm 14.2 12.4 13.2 94 0.6 SW 15 24 8 13 1023.4 1023.1 0.0
29/12:12pm 13.6 11.4 13.3 98 0.2 SW 17 24 9 13 1023.7 1023.4 0.0
29/12:00pm 13.5 12.1 13.3 99 0.1 SW 13 19 7 10 1023.8 1023.5 0.0
29/11:50am 13.2 11.7 13.0 99 0.1 SW 13 17 7 9 1023.8 1023.5 0.0
29/11:30am 13.0 11.0 12.7 98 0.2 SW 15 22 8 12 1023.9 1023.6 0.0
29/11:12am 13.3 10.6 13.0 98 0.2 SW 19 24 10 13 1023.8 1023.5 0.0
29/11:00am 12.9 10.9 12.7 99 0.1 SW 15 20 8 11 1023.9 1023.6 0.0
29/10:30am 12.5 9.6 12.3 99 0.1 WSW 19 28 10 15 1023.8 1023.5 0.0
29/10:00am 12.4 9.9 12.4 100 0.0 SW 17 20 9 11 1023.8 1023.5 0.0
29/09:30am 12.2 9.1 12.2 100 0.0 WSW 20 28 11 15 1023.8 1023.5 0.0
29/09:00am 12.2 9.1 12.2 100 0.0 WSW 20 33 11 18 1023.5 1023.2 1.2
29/08:57am 11.9 8.7 11.9 100 0.0 WSW 20 33 11 18 1023.5 1023.2 1.2
29/08:30am 11.8 9.1 11.8 100 0.0 WSW 17 28 9 15 1023.4 1023.1 1.2
29/08:08am 11.7 9.4 11.7 100 0.0 WSW 15 22 8 12 1023.2 1022.9 0.8
29/08:00am 11.6 9.3 11.6 100 0.0 WSW 15 19 8 10 1023.1 1022.8 0.8
29/07:45am 11.5 9.1 11.5 100 0.0 WSW 15 24 8 13 1023.0 1022.7 0.8
29/07:30am 11.4 9.4 11.4 100 0.0 WSW 13 19 7 10 1023.0 1022.7 0.8
29/07:00am 11.3 8.9 11.3 100 0.0 WSW 15 22 8 12 1022.6 1022.4 0.8
29/06:51am 11.3 8.5 11.3 100 0.0 WSW 17 22 9 12 1022.5 1022.3 0.8
29/06:30am 11.3 8.9 11.3 100 0.0 WSW 15 22 8 12 1022.4 1022.2 0.6
29/06:00am 11.3 8.5 11.3 100 0.0 WSW 17 22 9 12 1022.4 1022.2 0.6
29/05:44am 11.3 8.5 11.3 100 0.0 WSW 17 22 9 12 1022.3 1022.1 0.6
29/05:30am 11.3 8.1 11.3 100 0.0 W 19 26 10 14 1022.3 1022.1 0.6
29/05:16am 11.2 8.7 11.2 100 0.0 W 15 26 8 14 1022.3 1022.1 0.6
29/05:00am 11.2 9.1 11.2 100 0.0 W 13 20 7 11 1022.3 1022.1 0.6
29/04:56am 11.2 9.1 11.2 100 0.0 W 13 19 7 10 1022.3 1022.1 0.6
29/04:47am 11.2 8.7 11.2 100 0.0 W 15 20 8 11 1022.2 1022.0 0.6
29/04:30am 11.1 8.2 11.1 100 0.0 W 17 20 9 11 1022.2 1022.0 0.6
29/04:27am 11.1 8.2 11.1 100 0.0 W 17 22 9 12 1022.2 1022.0 0.6
29/04:00am 11.1 7.7 11.1 100 0.0 W 20 28 11 15 1022.2 1022.0 0.6
29/03:30am 11.1 8.2 11.1 100 0.0 W 17 20 9 11 1022.2 1022.0 0.6
29/03:21am 11.1 7.9 11.1 100 0.0 W 19 24 10 13 1022.2 1022.0 0.6
29/03:01am 11.2 8.0 11.2 100 0.0 W 19 28 10 15 1022.6 1022.4 0.6
29/03:00am 11.2 8.4 11.2 100 0.0 WSW 17 28 9 15 1022.6 1022.4 0.6
29/02:30am 11.2 9.5 11.2 100 0.0 W 11 15 6 8 1022.7 1022.5 0.6
29/02:19am 11.2 9.5 11.2 100 0.0 W 11 17 6 9 1022.7 1022.5 0.6
29/02:14am 11.1 9.0 11.1 100 0.0 W 13 17 7 9 1022.7 1022.5 0.6
29/02:00am 11.1 9.0 11.1 100 0.0 W 13 19 7 10 1022.8 1022.6 0.6
29/01:30am 11.2 8.7 11.0 99 0.1 W 15 20 8 11 1023.2 1022.9 0.6
29/01:10am 11.5 9.4 11.3 99 0.1 W 13 20 7 11 1023.2 1022.9 0.6
29/01:00am 11.5 9.4 11.3 99 0.1 W 13 19 7 10 1023.2 1022.9 0.6
29/12:30am 11.6 9.5 11.3 98 0.2 W 13 17 7 9 1023.2 1022.9 0.6
29/12:00am 11.5 10.2 11.2 98 0.2 W 9 13 5 7 1023.4 1023.1 0.6
 
Date/Time
EST
Temp
°C
App
Temp
°C
Dew
Point
°C
Rel
Hum
%
Delta-T
°C
Wind Press
QNH
hPa
Press
MSL
hPa
Rain since
9am
mm
Dir  Spd
km/h
Gust
km/h
Spd
kts
Gust
kts
28/11:30pm 11.7 9.7 11.4 98 0.2 W 13 19 7 10 1023.4 1023.1 0.6
28/11:00pm 11.6 8.8 11.4 99 0.1 W 17 22 9 12 1023.6 1023.3 0.6
28/10:30pm 11.7 9.3 11.5 99 0.1 WSW 15 20 8 11 1024.0 1023.7 0.6
28/10:00pm 11.7 9.0 11.7 100 0.0 W 17 22 9 12 1024.0 1023.7 0.6
28/09:59pm 11.7 9.0 11.7 100 0.0 W 17 22 9 12 1024.0 1023.7 0.6
28/09:30pm 11.8 9.5 11.8 100 0.0 W 15 19 8 10 1024.0 1023.7 0.6
28/09:00pm 12.2 9.1 12.2 100 0.0 W 20 30 11 16 1023.8 1023.5 0.6
28/08:30pm 12.4 10.7 12.4 100 0.0 W 13 19 7 10 1023.9 1023.6 0.6
28/08:00pm 12.5 11.6 12.5 100 0.0 WSW 9 13 5 7 1023.8 1023.5 0.6
28/07:32pm 12.2 11.5 12.0 99 0.1 SW 7 11 4 6 1023.8 1023.5 0.6
28/07:30pm 12.1 11.4 11.9 99 0.1 SW 7 11 4 6 1023.8 1023.5 0.6
28/07:00pm 12.4 11.0 12.1 98 0.2 W 11 13 6 7 1023.6 1023.3 0.6
28/06:30pm 13.3 12.2 13.0 98 0.2 WSW 11 17 6 9 1023.6 1023.3 0.6
28/06:00pm 13.3 12.9 13.0 98 0.2 SW 7 11 4 6 1023.4 1023.1 0.6
28/05:30pm 13.8 12.8 13.5 98 0.2 WSW 11 15 6 8 1023.3 1023.0 0.6
28/05:00pm 14.1 12.5 13.8 98 0.2 WSW 15 20 8 11 1023.2 1022.9 0.6
28/04:30pm 14.5 12.5 14.0 97 0.3 W 17 24 9 13 1023.3 1023.0 0.6
28/04:00pm 14.8 12.7 13.7 93 0.6 WSW 17 24 9 13 1023.2 1022.9 0.6
28/03:30pm 14.5 12.0 13.5 94 0.6 W 19 24 10 13 1023.2 1022.9 0.6
28/03:00pm 14.5 12.1 13.9 96 0.3 W 19 26 10 14 1023.2 1022.9 0.6
28/02:30pm 14.4 11.5 14.1 98 0.2 W 22 30 12 16 1023.3 1023.0 0.6
28/02:23pm 14.3 11.4 14.0 98 0.2 W 22 30 12 16 1023.3 1023.0 0.6
28/02:00pm 14.6 12.2 14.3 98 0.2 WSW 20 28 11 15 1023.3 1023.0 0.6
28/01:30pm 13.4 11.2 13.4 100 0.0 W 17 22 9 12 1023.6 1023.3 0.6
28/01:00pm 12.7 9.9 12.7 100 0.0 W 19 26 10 14 1023.9 1023.6 0.6
28/12:42pm 12.6 9.6 12.6 100 0.0 W 20 26 11 14 1024.1 1023.8 0.6
28/12:30pm 12.3 9.8 12.3 100 0.0 W 17 24 9 13 1024.3 1024.1 0.4
28/12:00pm 12.5 9.1 12.5 100 0.0 W 22 30 12 16 1024.5 1024.3 0.4
28/11:56am 12.5 9.5 12.5 100 0.0 W 20 30 11 16 1024.5 1024.3 0.4
28/11:39am 12.8 9.5 12.8 100 0.0 W 22 32 12 17 1024.6 1024.4 0.4
28/11:30am 12.7 9.7 12.7 100 0.0 W 20 26 11 14 1024.7 1024.5 0.4
28/11:18am 12.6 9.8 12.6 100 0.0 W 19 26 10 14 1024.8 1024.6 0.4
28/11:05am 12.3 9.4 12.3 100 0.0 W 19 24 10 13 1024.8 1024.6 0.4
28/11:00am 12.3 9.2 12.3 100 0.0 W 20 24 11 13 1024.8 1024.6 0.4
28/10:30am 12.0 10.2 12.0 100 0.0 W 13 20 7 11 1024.9 1024.7 0.4
28/10:00am 11.4 9.0 11.4 100 0.0 W 15 22 8 12 1024.9 1024.7 0.0
28/09:30am 10.6 9.1 10.6 100 0.0 NW 9 11 5 6 1024.8 1024.6 0.0
28/09:00am 10.2 8.6 10.2 100 0.0 NW 9 13 5 7 1024.7 1024.5 0.4
28/08:31am 10.4 8.5 10.4 100 0.0 NW 11 13 6 7 1024.4 1024.2 0.2
28/08:30am 10.4 8.5 10.4 100 0.0 NW 11 13 6 7 1024.4 1024.2 0.2
28/08:29am 10.4 8.9 10.4 100 0.0 NW 9 13 5 7 1024.4 1024.2 0.2
28/08:00am 9.8 8.1 9.8 100 0.0 NW 9 13 5 7 1024.2 1024.0 0.2
28/07:30am 9.3 7.8 9.3 100 0.0 NNW 7 9 4 5 1024.0 1023.7 0.2
28/07:00am 8.4 6.7 8.4 100 0.0 NNW 7 9 4 5 1023.8 1023.5 0.2
28/06:30am 8.9 7.5 8.9 100 0.0 NNW 6 7 3 4 1023.5 1023.2 0.2
28/06:00am 9.3 8.4 9.3 100 0.0 W 4 6 2 3 1023.5 1023.2 0.2
28/05:30am 9.4 8.0 9.4 100 0.0 WNW 7 11 4 6 1023.5 1023.2 0.2
28/05:00am 9.4 7.6 9.4 100 0.0 WNW 9 13 5 7 1023.2 1022.9 0.2
28/04:30am 9.3 7.5 9.3 100 0.0 W 9 13 5 7 1023.2 1022.9 0.2
28/04:00am 9.2 7.3 9.2 100 0.0 W 9 13 5 7 1023.2 1022.9 0.2
28/03:30am 9.2 7.0 9.2 100 0.0 WSW 11 15 6 8 1023.2 1022.9 0.2
28/03:27am 9.2 7.0 9.2 100 0.0 WSW 11 17 6 9 1023.2 1022.9 0.2
28/03:00am 9.3 6.3 9.3 100 0.0 W 15 17 8 9 1023.3 1023.0 0.0
28/02:54am 9.3 6.3 9.3 100 0.0 W 15 19 8 10 1023.2 1022.9 0.0
28/02:30am 9.3 7.1 9.3 100 0.0 W 11 19 6 10 1023.2 1022.9 0.0
28/02:00am 9.1 7.2 9.1 100 0.0 W 9 13 5 7 1023.5 1023.2 0.0
28/01:50am 9.1 6.8 9.1 100 0.0 WSW 11 15 6 8 1023.6 1023.3 0.0
28/01:30am 9.1 6.8 9.1 100 0.0 WSW 11 15 6 8 1023.6 1023.3 0.0
28/01:20am 9.1 6.8 9.1 100 0.0 W 11 15 6 8 1023.6 1023.3 0.0
28/01:00am 9.1 6.4 9.1 100 0.0 W 13 19 7 10 1023.6 1023.3 0.0
28/12:30am 9.2 5.8 9.2 100 0.0 W 17 24 9 13 1023.8 1023.5 0.0
28/12:00am 9.1 5.7 9.1 100 0.0 W 17 24 9 13 1023.8 1023.5 0.0
 
Date/Time
EST
Temp
°C
App
Temp
°C
Dew
Point
°C
Rel
Hum
%
Delta-T
°C
Wind Press
QNH
hPa
Press
MSL
hPa
Rain since
9am
mm
Dir  Spd
km/h
Gust
km/h
Spd
kts
Gust
kts
27/11:30pm 9.0 5.9 9.0 100 0.0 W 15 24 8 13 1023.8 1023.5 0.0
27/11:22pm 9.0 6.3 9.0 100 0.0 W 13 19 7 10 1023.8 1023.5 0.0
27/11:02pm 8.9 7.0 8.9 100 0.0 W 9 13 5 7 1023.9 1023.6 0.0
27/11:00pm 8.9 7.0 8.9 100 0.0 WSW 9 11 5 6 1023.9 1023.6 0.0
27/10:30pm 8.9 7.0 8.9 100 0.0 W 9 13 5 7 1023.9 1023.6 0.0
27/10:28pm 8.8 6.8 8.8 100 0.0 W 9 13 5 7 1023.9 1023.6 0.0
27/10:00pm 8.8 6.4 8.8 100 0.0 WSW 11 13 6 7 1023.9 1023.6 0.0
27/09:57pm 8.8 6.4 8.8 100 0.0 WSW 11 15 6 8 1023.8 1023.5 0.0
27/09:30pm 8.8 6.8 8.7 99 0.0 W 9 11 5 6 1023.9 1023.6 0.0
27/09:00pm 8.8 7.2 8.7 99 0.0 WSW 7 11 4 6 1023.8 1023.5 0.0
27/08:30pm 9.0 7.4 8.9 99 0.1 WSW 7 11 4 6 1023.9 1023.6 0.0
27/08:10pm 9.0 7.6 8.9 99 0.1 SW 6 7 3 4 1023.8 1023.5 0.0
27/08:00pm 9.0 7.4 8.9 99 0.0 SW 7 9 4 5 1023.7 1023.4 0.0
27/07:30pm 8.8 7.8 8.7 99 0.0 SW 4 7 2 4 1023.6 1023.3 0.0
27/07:00pm 8.9 7.3 8.8 99 0.0 SW 7 11 4 6 1023.7 1023.4 0.0
27/06:48pm 9.1 7.2 9.0 99 0.1 SW 9 13 5 7 1023.6 1023.3 0.0
27/06:37pm 9.3 7.0 9.0 98 0.2 WSW 11 13 6 7 1023.4 1023.1 0.0
27/06:30pm 9.4 7.1 9.1 98 0.2 WSW 11 17 6 9 1023.4 1023.1 0.0
27/06:00pm 9.4 7.5 9.1 98 0.2 SW 9 13 5 7 1023.3 1023.0 0.0
27/05:30pm 9.4 7.1 9.1 98 0.2 WSW 11 17 6 9 1022.7 1022.5 0.0
27/05:00pm 9.6 6.9 8.8 95 0.4 WSW 13 20 7 11 1022.6 1022.4 0.0
27/04:30pm 10.2 6.5 8.0 86 1.1 SW 17 24 9 13 1022.8 1022.6 0.0
27/04:00pm 9.7 7.0 9.1 96 0.3 SW 13 19 7 10 1023.0 1022.7 0.0
27/03:30pm 9.3 7.0 9.0 98 0.2 SW 11 17 6 9 1023.3 1023.0 0.0
27/03:26pm 9.2 6.9 8.9 98 0.2 SW 11 17 6 9 1023.3 1023.0 0.0
27/03:00pm 8.7 5.5 8.4 98 0.1 SSW 15 20 8 11 1023.5 1023.2 0.0
27/02:58pm 8.9 5.7 8.6 98 0.1 S 15 20 8 11 1023.5 1023.2 0.0
27/02:30pm 8.9 5.7 8.6 98 0.1 SSW 15 20 8 11 1023.3 1023.0 0.0
27/02:00pm 8.5 5.0 7.3 92 0.6 SW 15 32 8 17 1023.5 1023.2 0.0
27/01:30pm 8.7 5.9 8.4 98 0.1 SSW 13 20 7 11 1023.5 1023.2 0.0
27/01:00pm 8.5 6.0 8.2 98 0.1 SSW 11 15 6 8 1023.3 1023.0 0.0
27/12:30pm 8.2 4.6 6.8 91 0.7 SSW 15 24 8 13 1023.9 1023.6 0.0
27/12:00pm 9.4 4.8 5.6 77 1.8 SSW 19 26 10 14 1024.0 1023.7 0.0
27/11:30am 9.6 5.8 5.8 77 1.8 SSW 15 22 8 12 1024.1 1023.8 0.0
27/11:00am 8.8 4.0 5.7 81 1.4 SSW 20 30 11 16 1024.1 1023.8 0.0
27/10:30am 9.5 4.8 5.1 74 2.0 SSW 19 28 10 15 1023.7 1023.4 0.0
27/10:00am 8.7 5.0 6.3 85 1.1 SSW 15 20 8 11 1023.9 1023.6 0.0
27/09:30am 7.3 3.5 5.8 90 0.7 SSW 15 20 8 11 1023.9 1023.6 0.0
27/09:00am 7.1 3.7 6.0 93 0.5 SW 13 19 7 10 1023.8 1023.5 1.0
27/08:30am 6.7 3.4 6.4 98 0.1 SW 13 19 7 10 1023.4 1023.1 1.0
27/08:00am 4.7 1.8 4.4 98 0.1 SW 9 13 5 7 1022.8 1022.6 1.0
27/07:30am 4.4 1.4 4.3 99 0.0 SW 9 13 5 7 1022.7 1022.5 1.0
27/07:00am 4.0 1.3 3.9 99 0.0 SSW 7 11 4 6 1022.5 1022.3 1.0
27/06:30am 3.8 0.3 3.7 99 0.0 SW 11 17 6 9 1022.1 1021.8 1.0
27/06:00am 4.2 0.4 3.9 98 0.1 SW 13 17 7 9 1022.0 1021.7 1.0
27/05:30am 4.8 1.5 4.5 98 0.1 SSW 11 17 6 9 1021.6 1021.3 1.0
27/05:00am 3.5 0.4 3.4 99 0.0 SSW 9 13 5 7 1021.4 1021.1 1.0
27/04:30am 3.5 0.0 3.4 99 0.0 SSW 11 15 6 8 1021.1 1020.8 1.0
27/04:00am 3.8 0.0 3.7 99 0.0 SW 13 19 7 10 1020.9 1020.6 1.0
27/03:30am 3.8 0.3 3.7 99 0.0 SSW 11 17 6 9 1020.9 1020.6 1.0
27/03:00am 3.8 0.3 3.7 99 0.0 SSW 11 15 6 8 1020.8 1020.5 1.0
27/02:30am 3.8 0.0 3.7 99 0.0 SSW 13 15 7 8 1021.0 1020.7 1.0
27/02:00am 4.1 0.3 4.0 99 0.0 SSW 13 20 7 11 1020.8 1020.5 1.0
27/01:30am 4.4 -0.1 4.3 99 0.0 SSW 17 22 9 12 1020.8 1020.5 1.0
27/01:00am 4.5 0.4 4.4 99 0.0 SSW 15 22 8 12 1020.6 1020.3 1.0
27/12:30am 3.8 0.0 3.7 99 0.0 SW 13 19 7 10 1020.4 1020.2 1.0
27/12:00am 3.7 0.2 3.6 99 0.0 SW 11 17 6 9 1020.2 1020.0 1.0

Other Formats:

Comma delimited format used in spreadsheet applications
http://www.bom.gov.au/fwo/IDV60801/IDV60801.94852.axf

JavaScript Object Notation format (JSON) in row-major order
http://www.bom.gov.au/fwo/IDV60801/IDV60801.94852.json